Tuesday, January 16, 2018, 12:29 PM EST
Back to Local

KJGG, Williamsburg, Williamsburg-jamestown Airport

Location: Williamsburg, VA, United States Lat: 37.239
Local Time: 12:29 PM EST (17:29 GMT) Lon: -76.716
Time Zone: US/Eastern Elev: 49 ft

Show me the last for .
Show Decoded

2018-01-16 12:15 METAR KJGG 161715Z AUTO 00000KT 10SM CLR 07/02 A3046 RMK AO1 =
2018-01-16 11:35 METAR KJGG 161635Z AUTO 00000KT 10SM SCT009 06/03 A3048 RMK AO1 =
2018-01-16 11:15 METAR KJGG 161615Z AUTO 00000KT 10SM BKN009 04/02 A3049 RMK AO1 =
2018-01-16 10:55 METAR KJGG 161555Z AUTO 00000KT 10SM BKN007 03/01 A3049 RMK AO1 =
2018-01-16 10:35 METAR KJGG 161535Z AUTO 00000KT 10SM OVC005 02/00 A3050 RMK AO1 =
2018-01-16 10:15 METAR KJGG 161515Z AUTO 00000KT 10SM OVC005 02/00 A3050 RMK AO1 =
2018-01-16 09:55 METAR KJGG 161455Z AUTO 00000KT 10SM OVC003 02/M01 A3049 RMK AO1 =
2018-01-16 09:35 METAR KJGG 161435Z AUTO 00000KT 10SM OVC003 01/M01 A3050 RMK AO1 =
2018-01-16 09:15 METAR KJGG 161415Z AUTO 00000KT 10SM OVC003 01/M01 A3050 RMK AO1 =
2018-01-16 08:55 METAR KJGG 161355Z AUTO 00000KT 7SM OVC003 01/M01 A3050 RMK AO1 =
2018-01-16 08:35 METAR KJGG 161335Z AUTO 00000KT 10SM OVC003 01/M02 A3049 RMK AO1 =
2018-01-16 08:15 METAR KJGG 161315Z AUTO 00000KT 4SM OVC003 00/M02 A3048 RMK AO1 =
2018-01-16 07:55 METAR KJGG 161255Z AUTO 00000KT 4SM OVC003 00/M02 A3049 RMK AO1 =
2018-01-16 07:35 METAR KJGG 161235Z AUTO 00000KT 3SM OVC003 00/M02 A3049 RMK AO1 =
2018-01-16 07:15 METAR KJGG 161215Z AUTO 00000KT 4SM OVC003 00/M02 A3049 RMK AO1 =
2018-01-16 06:55 METAR KJGG 161155Z AUTO 00000KT 5SM OVC003 00/M02 A3049 RMK AO1 =
2018-01-16 06:35 METAR KJGG 161135Z AUTO 00000KT 5SM OVC003 00/M02 A3049 RMK AO1 =
2018-01-16 06:15 METAR KJGG 161115Z AUTO 00000KT 2 1/2SM OVC003 00/M02 A3049 RMK AO1 =
2018-01-16 05:55 METAR KJGG 161055Z AUTO 00000KT 3SM OVC003 00/M02 A3049 RMK AO1 =
2018-01-16 05:35 METAR KJGG 161035Z AUTO 00000KT 3SM OVC003 00/M02 A3048 RMK AO1 =
2018-01-16 05:15 METAR KJGG 161015Z AUTO 00000KT 2 1/2SM OVC003 00/M02 A3049 RMK AO1 VIS 2V4 =
2018-01-16 04:55 METAR KJGG 160955Z AUTO 00000KT 3SM OVC003 00/M02 A3048 RMK AO1 =
2018-01-16 04:35 METAR KJGG 160935Z AUTO 00000KT 2SM OVC003 00/M02 A3047 RMK AO1 =
2018-01-16 04:15 METAR KJGG 160915Z AUTO 00000KT 2 1/2SM OVC003 00/M02 A3046 RMK AO1 VIS 1 1/2V4
                 =
2018-01-16 03:55 METAR KJGG 160855Z AUTO 00000KT 4SM OVC003 01/M02 A3046 RMK AO1 =
2018-01-16 03:35 METAR KJGG 160835Z AUTO 00000KT 5SM OVC003 00/M02 A3046 RMK AO1 =
2018-01-16 03:15 METAR KJGG 160815Z AUTO 00000KT 5SM OVC003 00/M02 A3046 RMK AO1 =
2018-01-16 02:55 METAR KJGG 160755Z AUTO 00000KT 7SM OVC003 00/M02 A3046 RMK AO1 =
2018-01-16 02:35 METAR KJGG 160735Z AUTO 00000KT 7SM OVC003 00/M02 A3046 RMK AO1 =
2018-01-16 02:15 METAR KJGG 160715Z AUTO 00000KT 7SM OVC003 01/M02 A3047 RMK AO1 =
2018-01-16 01:55 METAR KJGG 160655Z AUTO 00000KT 5SM OVC003 01/M02 A3046 RMK AO1 =
2018-01-16 01:35 METAR KJGG 160635Z AUTO 00000KT 7SM OVC003 01/M02 A3045 RMK AO1 =
2018-01-16 01:15 METAR KJGG 160615Z AUTO 00000KT 7SM OVC005 01/M03 A3045 RMK AO1 =
2018-01-16 00:55 METAR KJGG 160555Z AUTO 00000KT 10SM OVC005 01/M03 A3045 RMK AO1 =
2018-01-16 00:35 METAR KJGG 160535Z AUTO 00000KT 10SM OVC005 01/M02 A3047 RMK AO1 =
2018-01-16 00:15 METAR KJGG 160515Z AUTO 00000KT 10SM OVC007 01/M03 A3047 RMK AO1 =
2018-01-15 23:55 METAR KJGG 160455Z AUTO 00000KT 10SM OVC007 01/M03 A3048 RMK AO1 =
2018-01-15 23:35 METAR KJGG 160435Z AUTO 00000KT 10SM OVC009 01/M03 A3048 RMK AO1 =
2018-01-15 23:15 METAR KJGG 160415Z AUTO 00000KT 10SM OVC009 01/M03 A3049 RMK AO1 =
2018-01-15 22:55 METAR KJGG 160355Z AUTO 00000KT 10SM OVC009 01/M03 A3049 RMK AO1 =
2018-01-15 22:35 METAR KJGG 160335Z AUTO 00000KT 10SM OVC011 01/M03 A3049 RMK AO1 =
2018-01-15 22:15 METAR KJGG 160315Z AUTO 00000KT 10SM OVC011 01/M03 A3049 RMK AO1 =
2018-01-15 21:55 METAR KJGG 160255Z AUTO 00000KT 10SM OVC011 01/M03 A3049 RMK AO1 =
2018-01-15 21:35 METAR KJGG 160235Z AUTO 00000KT 10SM OVC009 01/M03 A3048 RMK AO1 =
2018-01-15 21:15 METAR KJGG 160215Z AUTO 00000KT 10SM OVC009 01/M03 A3049 RMK AO1 =
2018-01-15 20:55 METAR KJGG 160155Z AUTO 00000KT 10SM OVC011 01/M03 A3050 RMK AO1 =
2018-01-15 20:35 METAR KJGG 160135Z AUTO 00000KT 10SM OVC011 02/M03 A3050 RMK AO1 =
2018-01-15 20:15 METAR KJGG 160115Z AUTO 00000KT 10SM OVC011 02/M04 A3049 RMK AO1 =
2018-01-15 19:55 METAR KJGG 160055Z AUTO 00000KT 10SM OVC013 02/M04 A3050 RMK AO1 =
2018-01-15 19:35 METAR KJGG 160035Z AUTO 00000KT 10SM OVC013 02/M04 A3049 RMK AO1 =
2018-01-15 19:15 METAR KJGG 160015Z AUTO 00000KT 10SM OVC013 02/M04 A3050 RMK AO1 =
2018-01-15 18:55 METAR KJGG 152355Z AUTO 00000KT 10SM OVC013 02/M04 A3049 RMK AO1 =
2018-01-15 18:35 METAR KJGG 152335Z AUTO 00000KT 10SM OVC015 02/M04 A3048 RMK AO1 =
2018-01-15 18:15 METAR KJGG 152315Z AUTO 00000KT 10SM OVC015 01/M04 A3047 RMK AO1 =
2018-01-15 17:55 METAR KJGG 152255Z AUTO 00000KT 10SM BKN017 01/M05 A3047 RMK AO1 =
2018-01-15 17:35 METAR KJGG 152235Z AUTO 00000KT 10SM BKN017 02/M05 A3047 RMK AO1 =
2018-01-15 17:15 METAR KJGG 152215Z AUTO 00000KT 10SM BKN021 03/M04 A3048 RMK AO1 =
2018-01-15 16:55 METAR KJGG 152155Z AUTO 00000KT 10SM BKN023 05/M03 A3049 RMK AO1 =
2018-01-15 16:35 METAR KJGG 152135Z AUTO 00000KT 10SM CLR 06/M03 A3050 RMK AO1 =
2018-01-15 16:15 METAR KJGG 152115Z AUTO 00000KT 10SM CLR 06/M03 A3048 RMK AO1 =
2018-01-15 15:55 METAR KJGG 152055Z AUTO 00000KT 10SM CLR 07/M03 A3047 RMK AO1 =
2018-01-15 15:35 METAR KJGG 152035Z AUTO 00000KT 10SM CLR 07/M03 A3045 RMK AO1 =
2018-01-15 15:15 METAR KJGG 152015Z AUTO 00000KT 10SM CLR 07/M03 A3045 RMK AO1 =
2018-01-15 14:55 METAR KJGG 151955Z AUTO 00000KT 10SM CLR 07/M03 A3045 RMK AO1 =
2018-01-15 14:35 METAR KJGG 151935Z AUTO 00000KT 10SM CLR 06/M03 A3045 RMK AO1 =
2018-01-15 14:15 METAR KJGG 151915Z AUTO 00000KT 10SM CLR 05/M04 A3046 RMK AO1 =
2018-01-15 13:55 METAR KJGG 151855Z AUTO 35003KT 10SM SCT046 05/M04 A3046 RMK AO1 =
2018-01-15 13:35 METAR KJGG 151835Z AUTO 00000KT 10SM BKN046 04/M04 A3048 RMK AO1 =
2018-01-15 13:15 METAR KJGG 151815Z AUTO 33005KT 10SM BKN046 04/M05 A3048 RMK AO1 =
2018-01-15 12:55 METAR KJGG 151755Z AUTO 00000KT 10SM OVC046 04/M04 A3048 RMK AO1 =
2018-01-15 12:35 METAR KJGG 151735Z AUTO 34004KT 10SM BKN046 03/M05 A3050 RMK AO1 =

Support USWX by starting your Amazon purchase here.